Time;durP1;ratioP1;P1;durP2;ratioP2;P2;SDS_P1;SDS_P2;PMS_P1;PMS_P2;Temp;Humidity;BMP_temperature;BMP_pressure;BME280_temperature;BME280_humidity;BME280_pressure;Samples;Min_cycle;Max_cycle;Signal;HPM_P1;HPM_P2
2023/11/12 00:00:42;;;;;;;16.23;8.38;;;;;;;6.95;83.21;99004.53;5113038;28;20088;-40
2023/11/12 00:03:08;;;;;;;11.05;6.93;;;;;;;7.10;82.68;99016.78;5112783;28;20065;-40
2023/11/12 00:05:34;;;;;;;13.38;7.00;;;;;;;7.05;81.25;99015.53;5112666;28;20023;-40
2023/11/12 00:07:59;;;;;;;10.18;5.63;;;;;;;7.16;81.01;99014.16;5112474;28;20093;-39
2023/11/12 00:10:25;;;;;;;11.57;6.10;;;;;;;7.26;80.00;99027.00;5112963;28;20051;-39
2023/11/12 00:12:51;;;;;;;10.93;6.05;;;;;;;7.28;79.70;99029.47;5112672;28;20015;-38
2023/11/12 00:15:16;;;;;;;10.90;5.25;;;;;;;7.17;79.65;99039.59;5112317;28;20035;-38
2023/11/12 00:17:42;;;;;;;9.13;5.10;;;;;;;7.36;79.03;99038.03;5112504;28;20031;-38
2023/11/12 00:20:13;;;;;;;9.43;5.00;;;;;;;7.44;78.85;99037.84;5112531;28;20023;-39
2023/11/12 00:22:43;;;;;;;7.97;5.35;;;;;;;7.64;77.08;99053.78;5112514;28;20068;-39
2023/11/12 00:25:10;;;;;;;9.85;5.30;;;;;;;7.61;77.08;99037.47;5112627;28;20023;-39
2023/11/12 00:27:35;;;;;;;9.57;5.00;;;;;;;7.69;76.35;99039.94;5112773;28;20170;-37
2023/11/12 00:30:00;;;;;;;10.82;4.57;;;;;;;8.05;74.31;99040.56;5112335;28;20577;-39
2023/11/12 00:32:28;;;;;;;5.97;3.50;;;;;;;8.10;73.36;99036.28;5112322;28;20019;-37
2023/11/12 00:34:53;;;;;;;7.55;3.40;;;;;;;8.40;71.38;99035.84;5112178;28;20023;-37
2023/11/12 00:37:18;;;;;;;5.25;3.10;;;;;;;8.48;71.10;99037.50;5112163;28;20398;-37
2023/11/12 00:39:44;;;;;;;6.20;3.25;;;;;;;8.64;70.42;99039.69;5112274;28;20142;-38
2023/11/12 00:42:09;;;;;;;6.00;3.35;;;;;;;8.79;68.87;99048.22;5111917;28;20480;-39
2023/11/12 00:44:35;;;;;;;6.53;3.70;;;;;;;8.80;69.48;99041.91;5112188;28;20024;-39
2023/11/12 00:47:01;;;;;;;6.22;2.85;;;;;;;9.00;68.05;99049.81;5112039;28;20509;-38
2023/11/12 00:49:26;;;;;;;6.05;2.72;;;;;;;9.33;65.91;99054.16;5112502;28;20034;-39
2023/11/12 00:51:51;;;;;;;4.78;2.28;;;;;;;9.47;65.22;99049.56;5111960;28;20364;-39
2023/11/12 00:54:17;;;;;;;5.05;2.30;;;;;;;9.45;65.10;99048.16;5112195;28;20106;-38
2023/11/12 00:56:42;;;;;;;4.95;2.30;;;;;;;9.49;65.55;99050.19;5112027;28;20449;-38
2023/11/12 00:59:08;;;;;;;3.70;1.60;;;;;;;9.36;65.05;99048.41;5112373;28;20158;-38
2023/11/12 01:01:34;;;;;;;4.15;1.70;;;;;;;9.50;64.53;99054.47;5112047;28;20540;-39
2023/11/12 01:04:00;;;;;;;2.25;1.45;;;;;;;9.49;64.69;99055.50;5111831;28;20031;-39
2023/11/12 01:06:26;;;;;;;3.80;1.83;;;;;;;9.39;65.88;99049.84;5112136;28;20035;-39
2023/11/12 01:08:51;;;;;;;3.92;1.60;;;;;;;9.58;64.94;99058.72;5111683;28;20024;-39
2023/11/12 01:11:17;;;;;;;3.00;1.40;;;;;;;9.51;64.68;99065.91;5112081;28;20103;-39
2023/11/12 01:13:42;;;;;;;2.35;1.42;;;;;;;9.59;64.28;99065.66;5111868;28;20553;-39
2023/11/12 01:16:08;;;;;;;1.83;1.15;;;;;;;9.78;63.15;99069.22;5111488;28;20443;-39
2023/11/12 01:18:35;;;;;;;3.00;1.40;;;;;;;9.71;64.63;99076.41;5111749;28;20031;-39
2023/11/12 01:21:02;;;;;;;3.65;1.50;;;;;;;9.97;63.22;99073.56;5111621;28;20367;-39
2023/11/12 01:23:27;;;;;;;3.53;1.58;;;;;;;10.04;62.65;99084.16;5111759;28;20031;-41
2023/11/12 01:25:54;;;;;;;1.90;1.27;;;;;;;9.97;63.23;99076.22;5111653;28;20523;-38
2023/11/12 01:28:20;;;;;;;2.00;1.30;;;;;;;10.09;62.70;99073.72;5111582;28;20407;-38
2023/11/12 01:30:46;;;;;;;4.13;1.70;;;;;;;10.05;62.12;99085.81;5111385;28;20465;-38
2023/11/12 01:33:11;;;;;;;1.65;1.27;;;;;;;10.13;63.19;99085.53;5111301;28;20462;-38
2023/11/12 01:35:37;;;;;;;2.17;1.30;;;;;;;9.99;64.01;99084.00;5111214;28;20030;-25
2023/11/12 01:38:02;;;;;;;2.75;1.55;;;;;;;9.83;63.53;99071.25;5111674;28;20024;-27
2023/11/12 01:40:28;;;;;;;3.00;1.50;;;;;;;9.95;63.62;99094.22;5111559;28;20035;-26
2023/11/12 01:42:53;;;;;;;2.47;1.52;;;;;;;9.67;64.30;99084.00;5111516;28;20106;-25
2023/11/12 01:45:19;;;;;;;3.30;1.80;;;;;;;9.62;64.13;99080.38;5111454;28;20046;-25
2023/11/12 01:47:45;;;;;;;2.50;1.40;;;;;;;9.73;63.87;99083.16;5111096;28;20051;-25
2023/11/12 01:50:14;;;;;;;2.90;1.52;;;;;;;9.53;64.63;99079.78;5111718;28;20031;-25
2023/11/12 01:52:41;;;;;;;2.80;1.70;;;;;;;9.54;65.46;99084.09;5114049;28;20034;-25
2023/11/12 01:55:07;;;;;;;3.95;1.80;;;;;;;9.64;64.19;99097.72;5127212;28;20098;-25
2023/11/12 01:57:34;;;;;;;1.90;1.40;;;;;;;9.50;64.47;99089.00;5099461;28;20019;-27
2023/11/12 02:00:02;;;;;;;4.97;1.67;;;;;;;9.48;65.13;99093.72;5118587;28;20031;-25
2023/11/12 02:02:34;;;;;;;3.45;1.75;;;;;;;9.43;64.54;99090.88;5113740;28;20028;-26
2023/11/12 02:05:00;;;;;;;3.72;1.60;;;;;;;9.25;65.51;99096.06;5111070;28;20102;-25
2023/11/12 02:07:25;;;;;;;2.30;1.80;;;;;;;9.37;64.82;99091.72;5111330;28;20142;-26
2023/11/12 02:09:55;;;;;;;2.78;1.70;;;;;;;9.50;64.58;99107.59;5111239;28;20484;-25
2023/11/12 02:12:20;;;;;;;;;;;;;;;9.47;65.31;99096.56;5111681;28;20336;-26
2023/11/12 02:14:46;;;;;;;2.85;1.70;;;;;;;9.43;64.66;99098.84;5111143;28;19915;-26
2023/11/12 02:17:12;;;;;;;3.10;1.60;;;;;;;9.30;65.76;99109.53;5111156;28;20033;-26
2023/11/12 02:19:37;;;;;;;3.65;1.75;;;;;;;9.34;64.66;99110.72;5111125;28;20015;-27
2023/11/12 02:22:03;;;;;;;3.95;1.60;;;;;;;9.23;65.71;99114.03;5110925;28;20453;-26
2023/11/12 02:24:28;;;;;;;3.45;1.63;;;;;;;9.25;65.15;99112.78;5111406;28;20015;-26
2023/11/12 02:26:54;;;;;;;2.28;1.65;;;;;;;9.06;65.50;99111.03;5111437;28;20020;-27
2023/11/12 02:29:21;;;;;;;2.85;1.42;;;;;;;8.99;65.98;99111.88;5111017;28;20504;-26
2023/11/12 02:31:46;;;;;;;3.25;1.40;;;;;;;9.01;65.90;99116.97;5110878;28;20490;-27
2023/11/12 02:34:11;;;;;;;1.98;1.40;;;;;;;9.09;65.18;99103.47;5111204;28;20031;-26
2023/11/12 02:36:38;;;;;;;3.72;1.20;;;;;;;9.06;65.89;99111.03;5110973;28;20019;-26
2023/11/12 02:39:07;;;;;;;2.67;1.30;;;;;;;8.92;66.02;99108.41;5111903;28;20023;-26
2023/11/12 02:41:32;;;;;;;3.45;1.60;;;;;;;8.82;66.84;99107.22;5114464;28;20016;-26
2023/11/12 02:43:58;;;;;;;5.03;1.40;;;;;;;8.97;66.07;99102.50;5114759;28;20129;-26
2023/11/12 02:46:23;;;;;;;2.45;1.25;;;;;;;8.88;66.57;99101.88;5114635;28;20447;-26
2023/11/12 02:49:33;;;;;;;2.33;1.30;;;;;;;8.95;65.49;99113.31;5114843;28;20052;-26
2023/11/12 02:51:59;;;;;;;2.80;1.23;;;;;;;8.94;66.37;99101.03;5114249;28;20091;-26
2023/11/12 02:54:25;;;;;;;1.90;1.20;;;;;;;8.98;65.77;99107.56;5114326;28;20523;-26
2023/11/12 02:56:50;;;;;;;1.70;1.23;;;;;;;9.05;65.58;99104.09;5114423;28;20020;-27
2023/11/12 02:59:16;;;;;;;1.48;1.30;;;;;;;8.99;66.22;99108.41;5114650;28;20023;-27
2023/11/12 03:01:43;;;;;;;2.60;1.30;;;;;;;8.89;66.56;99108.00;5114368;28;20100;-26
2023/11/12 03:04:09;;;;;;;1.65;1.27;;;;;;;8.73;67.38;99111.91;5114091;28;20020;-26
2023/11/12 03:06:34;;;;;;;3.83;1.60;;;;;;;8.67;67.89;99116.22;5114577;28;20023;-26
2023/11/12 03:09:00;;;;;;;2.17;1.27;;;;;;;8.73;68.22;99125.19;5114232;28;20046;-26
2023/11/12 03:11:26;;;;;;;3.45;1.60;;;;;;;8.41;69.04;99128.47;5114072;28;20403;-26
2023/11/12 03:13:52;;;;;;;2.25;1.60;;;;;;;8.29;69.00;99119.47;5114533;27;20024;-26
2023/11/12 03:16:17;;;;;;;3.13;1.40;;;;;;;8.41;68.90;99127.63;5114186;28;20016;-27
2023/11/12 03:18:48;;;;;;;3.05;1.63;;;;;;;8.57;67.70;99116.63;5113910;28;20443;-27
2023/11/12 03:21:14;;;;;;;2.92;1.42;;;;;;;8.39;68.86;99130.47;5113992;28;20034;-26
2023/11/12 03:23:39;;;;;;;3.15;1.65;;;;;;;8.51;68.34;99133.38;5114106;28;20106;-26
2023/11/12 03:26:04;;;;;;;4.57;1.67;;;;;;;8.56;67.95;99132.75;5113751;28;20100;-25
2023/11/12 03:28:30;;;;;;;2.00;1.52;;;;;;;8.66;67.54;99140.28;5114053;28;20024;-26
2023/11/12 03:30:55;;;;;;;2.95;1.52;;;;;;;8.72;67.21;99142.94;5113804;28;20028;-27
2023/11/12 03:33:21;;;;;;;1.98;1.40;;;;;;;8.73;67.17;99136.59;5113712;28;20091;-26
2023/11/12 03:35:47;;;;;;;4.45;1.60;;;;;;;8.96;66.37;99133.50;5113537;28;20030;-26
2023/11/12 03:38:12;;;;;;;2.30;1.20;;;;;;;9.04;65.81;99139.59;5113569;28;20023;-26
2023/11/12 03:40:38;;;;;;;3.95;1.38;;;;;;;8.99;65.49;99132.28;5113789;28;20027;-25
2023/11/12 03:43:04;;;;;;;4.45;1.30;;;;;;;9.06;65.52;99143.69;5113416;28;20024;-26
2023/11/12 03:45:29;;;;;;;3.45;1.40;;;;;;;9.13;65.61;99133.88;5113585;28;20111;-26
2023/11/12 03:47:55;;;;;;;2.10;1.20;;;;;;;9.10;65.37;99128.16;5113466;28;20127;-26
2023/11/12 03:50:20;;;;;;;1.92;1.20;;;;;;;8.96;65.90;99146.75;5112473;28;20103;-26
2023/11/12 03:52:45;;;;;;;3.78;1.58;;;;;;;8.75;66.43;99154.97;5112912;28;20446;-26
2023/11/12 03:55:11;;;;;;;3.13;1.10;;;;;;;8.90;65.73;99144.94;5113265;28;20035;-26
2023/11/12 03:57:36;;;;;;;1.80;1.10;;;;;;;8.77;66.71;99144.97;5113319;28;20023;-26
2023/11/12 04:00:03;;;;;;;1.38;1.00;;;;;;;8.83;66.09;99144.13;5113261;28;20081;-26
2023/11/12 04:02:28;;;;;;;1.38;1.00;;;;;;;9.00;65.76;99140.03;5113004;28;20115;-26
2023/11/12 04:04:54;;;;;;;1.63;1.10;;;;;;;9.18;64.53;99143.88;5113235;28;20106;-26
2023/11/12 04:07:19;;;;;;;2.03;1.10;;;;;;;9.27;64.15;99147.94;5112755;28;20360;-26
2023/11/12 04:09:44;;;;;;;4.70;1.70;;;;;;;9.19;64.50;99148.16;5112849;28;20034;-26
2023/11/12 04:12:11;;;;;;;4.10;1.90;;;;;;;9.17;64.39;99147.53;5113093;28;20076;-26
2023/11/12 04:14:37;;;;;;;3.45;1.88;;;;;;;9.23;64.14;99154.66;5112662;28;20031;-26
2023/11/12 04:17:02;;;;;;;3.15;1.73;;;;;;;9.04;64.67;99166.16;5112705;28;20026;-26
2023/11/12 04:19:28;;;;;;;2.67;1.42;;;;;;;9.03;64.51;99162.69;5112362;28;20038;-26
2023/11/12 04:21:54;;;;;;;2.47;1.40;;;;;;;9.03;64.46;99168.00;5111990;28;20023;-26
2023/11/12 04:24:19;;;;;;;2.05;1.20;;;;;;;8.77;65.07;99167.00;5112324;27;20027;-26
2023/11/12 04:26:45;;;;;;;4.32;1.40;;;;;;;8.73;65.19;99168.44;5112242;28;20035;-26
2023/11/12 04:29:13;;;;;;;4.40;1.67;;;;;;;8.87;65.07;99163.94;5112873;28;20059;-26
2023/11/12 04:31:39;;;;;;;3.13;1.38;;;;;;;8.86;64.81;99162.31;5112312;28;20494;-26
2023/11/12 04:34:05;;;;;;;3.28;1.60;;;;;;;8.66;65.56;99169.47;5112715;28;20173;-27
2023/11/12 04:36:31;;;;;;;2.97;1.50;;;;;;;8.68;65.95;99172.72;5112526;28;20534;-26
2023/11/12 04:38:57;;;;;;;4.88;1.63;;;;;;;8.54;65.97;99164.78;5112521;28;20459;-26
2023/11/12 04:41:24;;;;;;;4.00;1.52;;;;;;;8.45;66.55;99179.25;5112619;28;20027;-26
2023/11/12 04:43:50;;;;;;;3.15;1.50;;;;;;;8.52;65.93;99181.91;5112507;28;20043;-26
2023/11/12 04:46:18;;;;;;;3.70;1.42;;;;;;;8.35;66.46;99182.28;5112146;28;20197;-30
2023/11/12 04:48:44;;;;;;;3.45;1.60;;;;;;;8.18;67.42;99187.13;5112632;28;20028;-26
2023/11/12 04:51:10;;;;;;;3.55;1.42;;;;;;;8.07;68.10;99190.38;5112342;28;20400;-26
2023/11/12 04:53:37;;;;;;;3.72;1.50;;;;;;;8.20;67.78;99190.41;5112345;28;20125;-26
2023/11/12 04:56:07;;;;;;;3.40;1.73;;;;;;;8.16;67.51;99194.47;5112137;28;20088;-26
2023/11/12 04:58:33;;;;;;;4.95;1.65;;;;;;;8.26;66.40;99191.44;5112137;28;20028;-26
2023/11/12 05:00:59;;;;;;;3.60;1.80;;;;;;;8.29;66.24;99192.88;5112239;28;20084;-26
2023/11/12 05:03:24;;;;;;;2.90;1.60;;;;;;;8.23;66.13;99194.50;5111465;28;20027;-26
2023/11/12 05:05:50;;;;;;;4.45;2.40;;;;;;;8.18;65.66;99200.38;5112647;28;20036;-26
2023/11/12 05:08:15;;;;;;;3.75;2.33;;;;;;;8.20;66.53;99208.97;5111009;28;20428;-26
2023/11/12 05:10:40;;;;;;;5.32;2.13;;;;;;;8.09;66.71;99216.69;5112885;28;20047;-26
2023/11/12 05:13:06;;;;;;;4.82;1.90;;;;;;;8.15;66.68;99219.38;5112856;28;20488;-26
2023/11/12 05:15:31;;;;;;;4.43;1.70;;;;;;;8.34;65.69;99227.53;5112441;28;20031;-25
2023/11/12 05:18:03;;;;;;;6.20;2.92;;;;;;;8.40;65.24;99232.06;5111964;28;20046;-26
2023/11/12 05:20:28;;;;;;;5.40;3.25;;;;;;;8.43;66.32;99233.50;5119043;27;20056;-26
2023/11/12 05:22:54;;;;;;;6.38;3.15;;;;;;;8.32;66.81;99233.06;5132701;27;20163;-25
2023/11/12 05:25:20;;;;;;;6.43;3.00;;;;;;;8.34;67.46;99244.28;5132630;27;20466;-26
2023/11/12 05:27:45;;;;;;;4.22;2.47;;;;;;;8.27;68.14;99242.63;5114122;28;20114;-26
2023/11/12 05:30:12;;;;;;;4.30;2.65;;;;;;;7.92;69.25;99251.50;5111910;28;20169;-26
2023/11/12 05:32:37;;;;;;;4.65;2.80;;;;;;;7.76;71.27;99243.88;5114524;28;20075;-26
2023/11/12 05:35:03;;;;;;;7.30;3.13;;;;;;;8.09;69.23;99262.56;5116936;28;20123;-27
2023/11/12 05:37:29;;;;;;;5.22;2.63;;;;;;;8.07;68.90;99267.22;5112330;28;20020;-25
2023/11/12 05:39:54;;;;;;;4.13;2.50;;;;;;;7.91;69.54;99270.25;5112014;28;20016;-27
2023/11/12 05:42:19;;;;;;;3.63;2.50;;;;;;;7.69;70.39;99265.06;5111952;28;20081;-26
2023/11/12 05:44:45;;;;;;;4.75;2.58;;;;;;;7.60;71.61;99268.88;5111947;28;20028;-26
2023/11/12 05:47:10;;;;;;;5.20;2.10;;;;;;;7.59;71.26;99264.59;5111556;28;20181;-26
2023/11/12 05:49:35;;;;;;;3.28;2.15;;;;;;;7.68;70.54;99281.16;5112049;28;20035;-27
2023/11/12 05:52:01;;;;;;;4.60;2.05;;;;;;;7.35;71.25;99277.28;5111954;28;20065;-25
2023/11/12 05:54:26;;;;;;;4.32;2.30;;;;;;;7.15;72.52;99263.09;5112167;28;20028;-26
2023/11/12 05:56:52;;;;;;;5.20;2.67;;;;;;;7.17;72.71;99258.41;5112079;28;20081;-27
2023/11/12 05:59:17;;;;;;;5.07;3.22;;;;;;;7.21;72.84;99276.34;5111949;28;20519;-27
2023/11/12 06:01:42;;;;;;;8.15;3.10;;;;;;;7.28;73.12;99270.31;5111891;28;20084;-27
2023/11/12 06:04:08;;;;;;;4.95;3.00;;;;;;;7.43;72.63;99273.66;5111988;28;20027;-27
2023/11/12 06:06:33;;;;;;;4.80;3.33;;;;;;;7.26;74.59;99285.56;5112019;28;20024;-26
2023/11/12 06:08:59;;;;;;;4.65;3.30;;;;;;;7.67;74.12;99301.50;5112035;28;20020;-26
2023/11/12 06:11:25;;;;;;;4.93;2.85;;;;;;;7.78;74.33;99303.59;5112176;28;20016;-26
2023/11/12 06:13:50;;;;;;;5.10;3.60;;;;;;;8.57;72.30;99314.75;5112490;28;20042;-26
2023/11/12 06:16:16;;;;;;;6.60;4.00;;;;;;;8.92;69.97;99310.09;5115660;28;20024;-26
2023/11/12 06:18:41;;;;;;;8.50;5.03;;;;;;;9.50;69.39;99338.69;5115576;28;20034;-26
2023/11/12 06:21:06;;;;;;;6.20;4.28;;;;;;;10.80;64.99;99329.03;5115520;28;20035;-26
2023/11/12 06:23:32;;;;;;;6.03;3.30;;;;;;;12.06;60.38;99332.41;5115278;28;20464;-27
2023/11/12 06:25:57;;;;;;;4.88;2.95;;;;;;;12.94;56.73;99330.22;5115681;28;20061;-27
2023/11/12 06:28:23;;;;;;;9.07;4.60;;;;;;;13.84;53.74;99343.31;5115649;28;20028;-27
2023/11/12 06:30:50;;;;;;;14.80;7.10;;;;;;;14.52;51.84;99327.53;5115322;28;20030;-27
2023/11/12 06:33:15;;;;;;;22.45;7.65;;;;;;;15.10;49.96;99336.38;5115486;28;20058;-27
2023/11/12 06:35:41;;;;;;;6.97;4.00;;;;;;;15.61;48.08;99337.16;5115345;28;20064;-26
2023/11/12 06:38:06;;;;;;;10.15;5.78;;;;;;;16.19;48.25;99347.59;5115365;28;20055;-28
2023/11/12 06:40:32;;;;;;;8.55;4.68;;;;;;;16.60;46.89;99342.66;5115151;28;20150;-27
2023/11/12 06:42:57;;;;;;;7.55;3.67;;;;;;;17.12;45.01;99333.25;5115267;28;20420;-26
2023/11/12 06:45:23;;;;;;;6.32;2.88;;;;;;;17.39;44.24;99338.56;5114865;28;20028;-27
2023/11/12 06:47:48;;;;;;;5.43;2.95;;;;;;;17.86;43.50;99343.22;5114521;27;20042;-40
2023/11/12 06:50:13;;;;;;;3.92;2.53;;;;;;;18.14;41.53;99350.09;5124218;27;20087;-41
2023/11/12 06:52:39;;;;;;;5.53;3.30;;;;;;;18.46;41.03;99356.38;5135189;27;20027;-40
2023/11/12 06:55:05;;;;;;;3.88;2.72;;;;;;;18.64;39.83;99358.59;5135649;27;20475;-41
2023/11/12 06:57:31;;;;;;;4.00;2.80;;;;;;;18.63;40.61;99372.31;5134722;27;20027;-41
2023/11/12 06:59:57;;;;;;;4.03;2.75;;;;;;;18.61;40.73;99375.28;5134621;27;20100;-39
2023/11/12 07:02:22;;;;;;;5.72;3.63;;;;;;;18.51;39.65;99372.56;5134064;27;20023;-41
2023/11/12 07:04:50;;;;;;;7.55;4.38;;;;;;;18.73;40.06;99367.78;5133597;27;20029;-40
2023/11/12 07:07:16;;;;;;;7.45;4.05;;;;;;;18.72;39.80;99371.53;5133448;27;20102;-41
2023/11/12 07:09:41;;;;;;;44.85;23.23;;;;;;;18.50;39.88;99374.44;5133942;27;20129;-41
2023/11/12 07:12:08;;;;;;;106.38;37.17;;;;;;;19.06;39.94;99376.47;5134165;27;20026;-40
2023/11/12 07:14:33;;;;;;;13.82;6.15;;;;;;;19.19;38.64;99379.72;5131689;27;20455;-40
2023/11/12 07:16:59;;;;;;;8.68;4.30;;;;;;;19.42;37.95;99379.19;5112980;28;20077;-41
2023/11/12 07:19:24;;;;;;;5.93;2.97;;;;;;;19.00;38.77;99387.50;5113922;28;20027;-40
2023/11/12 07:21:50;;;;;;;7.05;4.30;;;;;;;18.91;40.09;99382.66;5095416;28;20513;-40
2023/11/12 07:24:17;;;;;;;7.03;3.78;;;;;;;18.93;39.29;99387.78;5113630;28;20034;-39
2023/11/12 07:26:44;;;;;;;7.55;3.55;;;;;;;19.06;38.81;99383.78;5113668;28;20478;-39
2023/11/12 07:29:13;;;;;;;4.60;2.97;;;;;;;19.03;39.24;99377.00;5113768;28;20392;-40
2023/11/12 07:31:38;;;;;;;;;;;;;;;19.22;38.87;99395.38;5113869;28;20047;-41
2023/11/12 07:34:04;;;;;;;7.30;3.30;;;;;;;18.93;40.50;99387.78;5113077;28;19950;-40
2023/11/12 07:36:29;;;;;;;5.80;3.60;;;;;;;18.86;40.34;99387.22;5113372;28;20114;-39
2023/11/12 07:38:55;;;;;;;9.13;3.75;;;;;;;19.19;40.52;99383.25;5095160;28;20058;-42
2023/11/12 07:41:22;;;;;;;4.72;3.15;;;;;;;19.42;39.81;99378.34;5113867;28;20111;-40
2023/11/12 07:43:47;;;;;;;10.20;3.53;;;;;;;19.82;39.03;99382.94;5113137;28;20463;-41
2023/11/12 07:46:13;;;;;;;6.18;3.40;;;;;;;20.26;38.73;99382.28;5113158;28;20055;-39
2023/11/12 07:48:38;;;;;;;8.00;3.72;;;;;;;20.59;37.78;99382.66;5118160;27;20050;-40
2023/11/12 07:51:04;;;;;;;5.85;2.75;;;;;;;20.50;36.05;99374.34;5128000;27;20111;-40
2023/11/12 07:53:29;;;;;;;7.75;2.53;;;;;;;20.93;35.23;99376.56;5133716;27;20023;-39
2023/11/12 07:55:55;;;;;;;4.22;2.45;;;;;;;21.21;35.24;99374.16;5133742;27;20466;-41
2023/11/12 07:58:20;;;;;;;4.07;2.33;;;;;;;21.23;34.22;99356.59;5133903;27;20444;-41
2023/11/12 08:00:46;;;;;;;5.30;2.53;;;;;;;21.37;35.14;99374.88;5119161;27;20471;-40
2023/11/12 08:03:11;;;;;;;7.43;2.60;;;;;;;21.17;34.96;99373.13;5112693;28;20024;-40
2023/11/12 08:05:37;;;;;;;4.82;2.30;;;;;;;20.90;34.95;99382.50;5113089;28;20019;-40
2023/11/12 08:08:03;;;;;;;5.05;2.30;;;;;;;20.63;35.35;99383.75;5112597;28;20027;-39
2023/11/12 08:10:29;;;;;;;3.95;2.20;;;;;;;20.69;35.44;99371.84;5112625;28;20102;-40
2023/11/12 08:12:54;;;;;;;4.93;2.28;;;;;;;20.74;35.09;99371.00;5112706;28;20030;-41
2023/11/12 08:15:20;;;;;;;2.00;1.70;;;;;;;20.64;35.53;99377.28;5113012;28;20070;-40
2023/11/12 08:17:47;;;;;;;5.22;2.25;;;;;;;20.93;35.00;99375.75;5112874;28;20038;-40
2023/11/12 08:20:13;;;;;;;3.67;2.35;;;;;;;20.66;35.28;99377.00;5112134;28;20031;-39
2023/11/12 08:22:38;;;;;;;5.32;3.00;;;;;;;20.74;35.42;99372.91;5112443;28;20387;-40
2023/11/12 08:25:05;;;;;;;5.05;2.20;;;;;;;20.67;34.97;99373.19;5112301;28;20148;-40
2023/11/12 08:27:30;;;;;;;4.57;2.00;;;;;;;20.34;35.70;99369.28;5111839;28;20028;-40
2023/11/12 08:29:56;;;;;;;5.65;2.28;;;;;;;20.52;35.51;99382.16;5112310;28;20129;-40
2023/11/12 08:32:21;;;;;;;8.40;2.53;;;;;;;20.65;35.72;99389.69;5112075;28;20517;-41
2023/11/12 08:34:47;;;;;;;2.83;1.83;;;;;;;20.72;35.84;99375.06;5112020;28;20034;-38
2023/11/12 08:37:13;;;;;;;6.72;2.00;;;;;;;19.80;37.09;99384.28;5111945;28;20035;-39
2023/11/12 08:39:38;;;;;;;4.97;1.80;;;;;;;19.57;36.26;99377.53;5111824;28;20566;-40
2023/11/12 08:42:04;;;;;;;5.43;1.90;;;;;;;20.11;36.94;99366.94;5111941;28;20034;-40
2023/11/12 08:44:29;;;;;;;3.83;2.00;;;;;;;20.16;35.38;99365.28;5112054;28;20118;-42
2023/11/12 08:46:55;;;;;;;3.10;1.80;;;;;;;20.67;34.32;99375.91;5112232;28;20134;-40
2023/11/12 08:49:21;;;;;;;4.03;2.20;;;;;;;21.04;34.22;99380.00;5112207;28;20036;-40
2023/11/12 08:51:47;;;;;;;5.70;3.13;;;;;;;21.37;34.38;99383.00;5112054;28;20019;-40
2023/11/12 08:54:13;;;;;;;6.28;2.15;;;;;;;21.54;32.99;99393.44;5112203;28;20026;-39
2023/11/12 08:56:38;;;;;;;2.83;2.10;;;;;;;21.94;32.84;99394.13;5111438;28;20103;-38
2023/11/12 08:59:04;;;;;;;4.70;2.33;;;;;;;22.29;31.77;99400.25;5111560;28;20096;-40
2023/11/12 09:01:34;;;;;;;5.75;2.13;;;;;;;22.24;31.81;99393.78;5111683;28;20115;-38
2023/11/12 09:04:00;;;;;;;4.75;1.92;;;;;;;22.31;31.78;99398.06;5112068;28;20031;-41
2023/11/12 09:06:25;;;;;;;2.80;1.90;;;;;;;22.49;32.22;99393.78;5112368;28;20038;-39
2023/11/12 09:08:51;;;;;;;11.25;6.57;;;;;;;22.49;32.49;99386.47;5112021;28;20101;-42
2023/11/12 09:11:16;;;;;;;5.38;2.85;;;;;;;22.10;32.96;99386.63;5112204;28;20062;-40
2023/11/12 09:13:43;;;;;;;7.35;4.22;;;;;;;22.32;32.46;99397.78;5112160;28;20031;-41
2023/11/12 09:16:08;;;;;;;5.13;2.20;;;;;;;22.54;32.24;99399.97;5112303;28;20102;-40
2023/11/12 09:18:34;;;;;;;2.72;2.00;;;;;;;22.65;30.84;99403.31;5112280;28;20102;-39
2023/11/12 09:21:00;;;;;;;2.58;1.60;;;;;;;22.59;30.57;99393.66;5112173;28;20456;-42
2023/11/12 09:23:25;;;;;;;3.28;1.98;;;;;;;22.34;31.22;99394.78;5112471;28;20084;-43
2023/11/12 09:25:51;;;;;;;3.05;1.80;;;;;;;22.17;29.70;99384.38;5112239;28;20032;-38
2023/11/12 09:28:17;;;;;;;3.63;1.95;;;;;;;21.48;30.80;99382.63;5112630;28;20050;-39
2023/11/12 09:30:43;;;;;;;5.40;2.40;;;;;;;20.50;32.27;99381.63;5112604;28;20094;-39
2023/11/12 09:33:09;;;;;;;5.13;2.33;;;;;;;21.37;32.89;99362.13;5112448;28;20106;-38
2023/11/12 09:35:35;;;;;;;3.30;2.00;;;;;;;22.19;33.57;99366.72;5111808;28;20169;-39
2023/11/12 09:38:00;;;;;;;4.00;1.38;;;;;;;21.39;30.42;99351.84;5111622;28;20045;-40
2023/11/12 09:40:29;;;;;;;4.28;2.70;;;;;;;21.52;30.98;99352.31;5111659;28;20407;-40
2023/11/12 09:42:56;;;;;;;4.00;2.30;;;;;;;21.37;31.32;99351.31;5111704;28;20035;-40
2023/11/12 09:45:23;;;;;;;6.95;2.95;;;;;;;21.27;31.51;99354.13;5111672;28;20027;-41
2023/11/12 09:47:54;;;;;;;4.18;2.60;;;;;;;21.88;31.05;99354.66;5111597;28;20051;-40
2023/11/12 09:50:21;;;;;;;6.43;2.22;;;;;;;21.22;30.29;99351.44;5114996;28;20032;-40
2023/11/12 09:52:47;;;;;;;4.43;2.20;;;;;;;21.39;31.28;99351.84;5115745;28;20095;-39
2023/11/12 09:55:16;;;;;;;2.72;2.08;;;;;;;21.99;30.68;99361.53;5116111;28;20035;-39
2023/11/12 09:57:42;;;;;;;5.07;1.80;;;;;;;22.03;30.94;99363.41;5116010;28;20102;-38
2023/11/12 10:00:08;;;;;;;3.10;1.55;;;;;;;22.43;30.65;99361.31;5115975;28;20483;-38
2023/11/12 10:02:35;;;;;;;2.63;1.25;;;;;;;22.60;30.07;99357.31;5115702;28;20585;-40
2023/11/12 10:05:04;;;;;;;2.50;1.20;;;;;;;22.84;29.57;99351.78;5115719;28;20019;-40
2023/11/12 10:07:30;;;;;;;2.63;1.50;;;;;;;22.17;29.66;99355.38;5115432;28;20027;-41
2023/11/12 10:09:55;;;;;;;4.15;1.52;;;;;;;22.54;29.38;99353.03;5115465;28;20038;-38
2023/11/12 10:12:21;;;;;;;3.30;1.42;;;;;;;22.82;29.39;99354.00;5115396;28;20027;-39
2023/11/12 10:14:59;;;;;;;3.55;2.10;;;;;;;22.89;29.56;99351.72;5115308;28;20031;-40
2023/11/12 10:17:25;;;;;;;57.38;22.08;;;;;;;22.93;29.42;99358.19;5122936;27;20042;-39
2023/11/12 10:19:57;;;;;;;7.68;3.83;;;;;;;22.95;28.86;99355.16;5127235;27;20439;-39
2023/11/12 10:22:39;;;;;;;7.70;3.95;;;;;;;21.23;29.50;99340.34;5118149;27;20106;-40
2023/11/12 10:25:05;;;;;;;9.43;4.43;;;;;;;21.34;30.02;99335.63;5114790;28;20065;-39
2023/11/12 10:27:30;;;;;;;21.42;9.63;;;;;;;22.15;29.68;99327.78;5121113;27;20092;-39
2023/11/12 10:29:56;;;;;;;4.05;2.03;;;;;;;22.63;29.12;99321.47;5132234;27;20055;-39
2023/11/12 10:32:27;;;;;;;16.23;7.25;;;;;;;22.77;28.70;99318.81;5128457;27;20031;-41
2023/11/12 10:34:53;;;;;;;4.20;2.17;;;;;;;22.91;27.70;99308.84;5127346;27;20172;-40
2023/11/12 10:37:19;;;;;;;6.93;3.50;;;;;;;22.88;28.38;99301.28;5126289;27;20106;-39
2023/11/12 10:39:46;;;;;;;11.57;5.28;;;;;;;22.89;27.88;99300.19;5119450;27;20094;-39
2023/11/12 10:42:24;;;;;;;9.20;4.47;;;;;;;23.16;27.40;99310.34;5120439;27;20023;-39
2023/11/12 10:44:51;;;;;;;9.95;4.65;;;;;;;23.33;27.34;99301.66;5134230;27;20085;-39
2023/11/12 10:47:20;;;;;;;5.38;2.58;;;;;;;23.58;27.04;99307.72;5115599;27;20192;-38
2023/11/12 10:49:47;;;;;;;4.50;1.92;;;;;;;23.63;26.11;99307.63;5116210;27;20035;-41
2023/11/12 10:52:14;;;;;;;8.00;3.65;;;;;;;23.46;27.32;99313.63;5114208;28;20020;-39
2023/11/12 10:54:41;;;;;;;6.85;1.63;;;;;;;23.24;27.26;99314.28;5114587;28;20031;-37
2023/11/12 10:57:07;;;;;;;2.42;1.20;;;;;;;22.73;28.17;99323.22;5114788;28;20034;-39
2023/11/12 10:59:37;;;;;;;3.00;1.50;;;;;;;22.68;26.73;99315.19;5114008;28;20027;-39
2023/11/12 11:02:03;;;;;;;2.42;1.20;;;;;;;22.55;26.85;99319.41;5114580;28;20028;-39
2023/11/12 11:04:32;;;;;;;2.38;1.00;;;;;;;22.71;26.61;99323.50;5114638;28;20474;-39
2023/11/12 11:06:58;;;;;;;1.67;0.93;;;;;;;22.93;26.31;99324.81;5114552;28;20447;-39
2023/11/12 11:09:26;;;;;;;2.58;1.30;;;;;;;23.14;26.79;99303.63;5113836;28;20028;-40
2023/11/12 11:11:52;;;;;;;1.77;1.23;;;;;;;22.98;26.71;99303.84;5113597;28;20023;-37
2023/11/12 11:14:31;;;;;;;1.95;1.30;;;;;;;22.91;27.71;99302.63;5114024;28;20034;-40
2023/11/12 11:16:57;;;;;;;3.05;1.38;;;;;;;23.07;27.00;99295.84;5114286;28;20043;-40
2023/11/12 11:19:43;;;;;;;1.80;1.10;;;;;;;23.26;26.68;99284.13;5114553;28;20023;-38
2023/11/12 11:22:32;;;;;;;2.03;1.10;;;;;;;23.53;26.58;99281.47;5099670;28;20117;-37
2023/11/12 11:24:59;;;;;;;2.20;1.05;;;;;;;22.98;26.14;99274.00;5113974;28;20145;-40
2023/11/12 11:27:26;;;;;;;1.23;0.82;;;;;;;22.84;25.72;99275.84;5113878;28;20023;-39
2023/11/12 11:30:13;;;;;;;2.20;1.02;;;;;;;22.81;25.90;99276.47;5114765;28;20027;-39
2023/11/12 11:32:54;;;;;;;2.85;1.23;;;;;;;22.82;25.95;99275.34;5114383;28;20019;-41